sensor_id;sensor_type;location;lat;lon;timestamp;temperature;humidity
22383;DHT22;11359;45.802;13.530;2023-03-31T00:01:37;16.00;59.50
22383;DHT22;11359;45.802;13.530;2023-03-31T00:04:10;16.00;59.50
22383;DHT22;11359;45.802;13.530;2023-03-31T00:06:38;16.00;59.50
22383;DHT22;11359;45.802;13.530;2023-03-31T00:09:13;16.00;59.50
22383;DHT22;11359;45.802;13.530;2023-03-31T00:11:44;16.00;59.50
22383;DHT22;11359;45.802;13.530;2023-03-31T00:14:10;16.00;59.50
22383;DHT22;11359;45.802;13.530;2023-03-31T00:16:37;16.00;59.60
22383;DHT22;11359;45.802;13.530;2023-03-31T00:19:04;16.00;59.50
22383;DHT22;11359;45.802;13.530;2023-03-31T00:21:33;16.00;59.50
22383;DHT22;11359;45.802;13.530;2023-03-31T00:24:04;16.00;59.50
22383;DHT22;11359;45.802;13.530;2023-03-31T00:26:32;16.00;59.50
22383;DHT22;11359;45.802;13.530;2023-03-31T00:28:58;16.00;59.50
22383;DHT22;11359;45.802;13.530;2023-03-31T00:31:25;15.90;59.40
22383;DHT22;11359;45.802;13.530;2023-03-31T00:33:52;16.00;59.50
22383;DHT22;11359;45.802;13.530;2023-03-31T00:36:19;16.00;59.50
22383;DHT22;11359;45.802;13.530;2023-03-31T00:39:04;16.00;59.50
22383;DHT22;11359;45.802;13.530;2023-03-31T00:41:37;15.90;59.50
22383;DHT22;11359;45.802;13.530;2023-03-31T00:44:18;16.00;59.50
22383;DHT22;11359;45.802;13.530;2023-03-31T00:49:26;16.00;59.50
22383;DHT22;11359;45.802;13.530;2023-03-31T00:51:59;16.00;59.50
22383;DHT22;11359;45.802;13.530;2023-03-31T00:54:27;16.00;59.50
22383;DHT22;11359;45.802;13.530;2023-03-31T00:56:55;16.00;59.50
22383;DHT22;11359;45.802;13.530;2023-03-31T00:59:26;16.00;59.50
22383;DHT22;11359;45.802;13.530;2023-03-31T01:01:53;16.00;59.50
22383;DHT22;11359;45.802;13.530;2023-03-31T01:04:23;16.00;59.50
22383;DHT22;11359;45.802;13.530;2023-03-31T01:07:06;15.90;59.40
22383;DHT22;11359;45.802;13.530;2023-03-31T01:09:34;15.90;59.40
22383;DHT22;11359;45.802;13.530;2023-03-31T01:12:05;15.90;59.40
22383;DHT22;11359;45.802;13.530;2023-03-31T01:14:32;16.00;59.40
22383;DHT22;11359;45.802;13.530;2023-03-31T01:16:57;16.00;59.40
22383;DHT22;11359;45.802;13.530;2023-03-31T01:19:41;15.90;59.40
22383;DHT22;11359;45.802;13.530;2023-03-31T01:25:20;16.00;59.40
22383;DHT22;11359;45.802;13.530;2023-03-31T01:33:41;15.90;59.30
22383;DHT22;11359;45.802;13.530;2023-03-31T01:47:24;15.90;59.30
22383;DHT22;11359;45.802;13.530;2023-03-31T01:52:40;15.90;59.30
22383;DHT22;11359;45.802;13.530;2023-03-31T01:55:11;16.00;59.30
22383;DHT22;11359;45.802;13.530;2023-03-31T02:00:33;16.00;59.30
22383;DHT22;11359;45.802;13.530;2023-03-31T02:03:04;16.00;59.30
22383;DHT22;11359;45.802;13.530;2023-03-31T02:05:37;16.00;59.30
22383;DHT22;11359;45.802;13.530;2023-03-31T02:08:28;15.90;59.20
22383;DHT22;11359;45.802;13.530;2023-03-31T02:10:57;16.00;59.30
22383;DHT22;11359;45.802;13.530;2023-03-31T02:13:25;15.90;59.20
22383;DHT22;11359;45.802;13.530;2023-03-31T02:15:54;15.90;59.30
22383;DHT22;11359;45.802;13.530;2023-03-31T02:18:25;16.00;59.30
22383;DHT22;11359;45.802;13.530;2023-03-31T02:20:56;16.00;59.30
22383;DHT22;11359;45.802;13.530;2023-03-31T02:23:24;16.00;59.30
22383;DHT22;11359;45.802;13.530;2023-03-31T02:26:01;16.00;59.30
22383;DHT22;11359;45.802;13.530;2023-03-31T02:28:28;16.00;59.20
22383;DHT22;11359;45.802;13.530;2023-03-31T02:31:02;16.00;59.30
22383;DHT22;11359;45.802;13.530;2023-03-31T02:33:29;16.00;59.20
22383;DHT22;11359;45.802;13.530;2023-03-31T02:35:57;16.00;59.30
22383;DHT22;11359;45.802;13.530;2023-03-31T02:38:23;16.00;59.20
22383;DHT22;11359;45.802;13.530;2023-03-31T02:40:49;16.00;59.20
22383;DHT22;11359;45.802;13.530;2023-03-31T02:43:15;16.00;59.20
22383;DHT22;11359;45.802;13.530;2023-03-31T02:45:44;16.00;59.20
22383;DHT22;11359;45.802;13.530;2023-03-31T02:48:15;16.00;59.10
22383;DHT22;11359;45.802;13.530;2023-03-31T03:02:18;16.00;59.10
22383;DHT22;11359;45.802;13.530;2023-03-31T03:07:55;16.00;59.20
22383;DHT22;11359;45.802;13.530;2023-03-31T03:12:57;16.00;59.20
22383;DHT22;11359;45.802;13.530;2023-03-31T03:16:02;16.00;59.20
22383;DHT22;11359;45.802;13.530;2023-03-31T03:18:30;16.00;59.20
22383;DHT22;11359;45.802;13.530;2023-03-31T03:20:56;16.00;59.20
22383;DHT22;11359;45.802;13.530;2023-03-31T03:23:21;16.00;59.20
22383;DHT22;11359;45.802;13.530;2023-03-31T03:25:47;16.00;59.20
22383;DHT22;11359;45.802;13.530;2023-03-31T03:28:13;16.00;59.20
22383;DHT22;11359;45.802;13.530;2023-03-31T03:30:39;15.90;59.20
22383;DHT22;11359;45.802;13.530;2023-03-31T03:33:05;15.90;59.20
22383;DHT22;11359;45.802;13.530;2023-03-31T03:35:32;15.90;59.20
22383;DHT22;11359;45.802;13.530;2023-03-31T03:37:58;15.90;59.10
22383;DHT22;11359;45.802;13.530;2023-03-31T03:40:23;15.90;59.10
22383;DHT22;11359;45.802;13.530;2023-03-31T03:42:49;15.90;59.10
22383;DHT22;11359;45.802;13.530;2023-03-31T03:45:15;15.90;59.10
22383;DHT22;11359;45.802;13.530;2023-03-31T03:47:41;15.90;59.20
22383;DHT22;11359;45.802;13.530;2023-03-31T03:50:07;16.00;59.20
22383;DHT22;11359;45.802;13.530;2023-03-31T03:52:33;15.90;59.20
22383;DHT22;11359;45.802;13.530;2023-03-31T03:54:58;15.90;59.20
22383;DHT22;11359;45.802;13.530;2023-03-31T03:57:26;16.00;59.20
22383;DHT22;11359;45.802;13.530;2023-03-31T03:59:52;15.90;59.20
22383;DHT22;11359;45.802;13.530;2023-03-31T04:02:18;16.00;59.20
22383;DHT22;11359;45.802;13.530;2023-03-31T04:04:43;16.00;59.30
22383;DHT22;11359;45.802;13.530;2023-03-31T04:07:10;16.00;59.30
22383;DHT22;11359;45.802;13.530;2023-03-31T04:09:36;16.00;59.30
22383;DHT22;11359;45.802;13.530;2023-03-31T04:12:01;16.00;59.20
22383;DHT22;11359;45.802;13.530;2023-03-31T04:14:28;16.00;59.20
22383;DHT22;11359;45.802;13.530;2023-03-31T04:16:53;16.00;59.20
22383;DHT22;11359;45.802;13.530;2023-03-31T04:19:21;16.00;59.30
22383;DHT22;11359;45.802;13.530;2023-03-31T04:21:51;16.00;59.20
22383;DHT22;11359;45.802;13.530;2023-03-31T04:24:24;16.00;59.20
22383;DHT22;11359;45.802;13.530;2023-03-31T04:26:55;16.00;59.20
22383;DHT22;11359;45.802;13.530;2023-03-31T04:29:21;16.00;59.30
22383;DHT22;11359;45.802;13.530;2023-03-31T04:31:52;16.00;59.30
22383;DHT22;11359;45.802;13.530;2023-03-31T04:34:19;16.00;59.20
22383;DHT22;11359;45.802;13.530;2023-03-31T04:36:46;16.00;59.30
22383;DHT22;11359;45.802;13.530;2023-03-31T04:39:18;16.00;59.30
22383;DHT22;11359;45.802;13.530;2023-03-31T04:41:59;16.00;59.40
22383;DHT22;11359;45.802;13.530;2023-03-31T04:44:25;15.90;59.30
22383;DHT22;11359;45.802;13.530;2023-03-31T04:46:52;16.00;59.40
22383;DHT22;11359;45.802;13.530;2023-03-31T04:49:18;15.90;59.30
22383;DHT22;11359;45.802;13.530;2023-03-31T04:51:43;15.90;59.40
22383;DHT22;11359;45.802;13.530;2023-03-31T04:54:09;15.90;59.40
22383;DHT22;11359;45.802;13.530;2023-03-31T04:56:35;15.90;59.40
22383;DHT22;11359;45.802;13.530;2023-03-31T04:59:01;15.90;59.50
22383;DHT22;11359;45.802;13.530;2023-03-31T05:01:29;15.90;59.50
22383;DHT22;11359;45.802;13.530;2023-03-31T05:03:58;15.90;59.50
22383;DHT22;11359;45.802;13.530;2023-03-31T05:06:24;15.90;59.50
22383;DHT22;11359;45.802;13.530;2023-03-31T05:08:50;15.90;59.50
22383;DHT22;11359;45.802;13.530;2023-03-31T05:11:16;15.90;59.50
22383;DHT22;11359;45.802;13.530;2023-03-31T05:13:41;15.90;59.50
22383;DHT22;11359;45.802;13.530;2023-03-31T05:16:09;15.90;59.60
22383;DHT22;11359;45.802;13.530;2023-03-31T05:18:35;15.90;59.60
22383;DHT22;11359;45.802;13.530;2023-03-31T05:21:15;15.90;59.60
22383;DHT22;11359;45.802;13.530;2023-03-31T05:23:42;15.90;59.70
22383;DHT22;11359;45.802;13.530;2023-03-31T05:26:08;15.90;59.70
22383;DHT22;11359;45.802;13.530;2023-03-31T05:28:35;15.90;59.70
22383;DHT22;11359;45.802;13.530;2023-03-31T05:31:03;15.90;59.80
22383;DHT22;11359;45.802;13.530;2023-03-31T05:33:29;15.90;59.70
22383;DHT22;11359;45.802;13.530;2023-03-31T05:35:55;15.90;59.80
22383;DHT22;11359;45.802;13.530;2023-03-31T05:38:21;15.90;59.70
22383;DHT22;11359;45.802;13.530;2023-03-31T05:40:47;15.90;59.70
22383;DHT22;11359;45.802;13.530;2023-03-31T05:43:13;15.90;59.70
22383;DHT22;11359;45.802;13.530;2023-03-31T05:45:38;15.90;59.80
22383;DHT22;11359;45.802;13.530;2023-03-31T05:48:04;16.00;59.90
22383;DHT22;11359;45.802;13.530;2023-03-31T05:50:31;15.90;59.90
22383;DHT22;11359;45.802;13.530;2023-03-31T05:52:57;16.00;60.00
22383;DHT22;11359;45.802;13.530;2023-03-31T05:55:23;16.00;60.00
22383;DHT22;11359;45.802;13.530;2023-03-31T05:57:49;16.00;60.00
22383;DHT22;11359;45.802;13.530;2023-03-31T06:00:15;16.00;60.00
22383;DHT22;11359;45.802;13.530;2023-03-31T06:02:41;16.00;60.10
22383;DHT22;11359;45.802;13.530;2023-03-31T06:05:07;16.00;60.00
22383;DHT22;11359;45.802;13.530;2023-03-31T06:07:33;16.10;60.10
22383;DHT22;11359;45.802;13.530;2023-03-31T06:09:58;16.10;60.00
22383;DHT22;11359;45.802;13.530;2023-03-31T06:12:24;16.10;60.00
22383;DHT22;11359;45.802;13.530;2023-03-31T06:14:50;16.10;59.90
22383;DHT22;11359;45.802;13.530;2023-03-31T06:17:16;16.10;59.90
22383;DHT22;11359;45.802;13.530;2023-03-31T06:19:41;16.10;60.00
22383;DHT22;11359;45.802;13.530;2023-03-31T06:22:07;16.10;60.00
22383;DHT22;11359;45.802;13.530;2023-03-31T06:24:32;16.10;60.00
22383;DHT22;11359;45.802;13.530;2023-03-31T06:26:58;16.10;60.00
22383;DHT22;11359;45.802;13.530;2023-03-31T06:29:26;16.10;60.00
22383;DHT22;11359;45.802;13.530;2023-03-31T06:31:52;16.10;60.10
22383;DHT22;11359;45.802;13.530;2023-03-31T06:34:18;16.10;60.10
22383;DHT22;11359;45.802;13.530;2023-03-31T06:36:43;16.10;60.10
22383;DHT22;11359;45.802;13.530;2023-03-31T06:39:09;16.10;60.10
22383;DHT22;11359;45.802;13.530;2023-03-31T06:41:35;16.10;60.10
22383;DHT22;11359;45.802;13.530;2023-03-31T06:44:01;16.10;60.10
22383;DHT22;11359;45.802;13.530;2023-03-31T06:46:27;16.10;60.10
22383;DHT22;11359;45.802;13.530;2023-03-31T06:48:53;16.10;60.10
22383;DHT22;11359;45.802;13.530;2023-03-31T06:51:19;16.10;60.10
22383;DHT22;11359;45.802;13.530;2023-03-31T06:53:44;16.10;60.10
22383;DHT22;11359;45.802;13.530;2023-03-31T06:56:10;16.10;60.20
22383;DHT22;11359;45.802;13.530;2023-03-31T06:58:36;16.10;60.30
22383;DHT22;11359;45.802;13.530;2023-03-31T07:01:03;16.10;60.30
22383;DHT22;11359;45.802;13.530;2023-03-31T07:03:30;16.10;60.30
22383;DHT22;11359;45.802;13.530;2023-03-31T07:05:56;16.20;60.40
22383;DHT22;11359;45.802;13.530;2023-03-31T07:08:23;16.20;60.40
22383;DHT22;11359;45.802;13.530;2023-03-31T07:10:53;16.20;60.40
22383;DHT22;11359;45.802;13.530;2023-03-31T07:13:19;16.20;60.40
22383;DHT22;11359;45.802;13.530;2023-03-31T07:15:49;16.20;60.40
22383;DHT22;11359;45.802;13.530;2023-03-31T07:18:17;16.20;60.40
22383;DHT22;11359;45.802;13.530;2023-03-31T07:20:46;16.20;60.40
22383;DHT22;11359;45.802;13.530;2023-03-31T07:23:21;16.30;60.40
22383;DHT22;11359;45.802;13.530;2023-03-31T07:25:47;16.20;60.30
22383;DHT22;11359;45.802;13.530;2023-03-31T07:28:14;16.30;60.40
22383;DHT22;11359;45.802;13.530;2023-03-31T07:30:40;16.30;60.40
22383;DHT22;11359;45.802;13.530;2023-03-31T07:33:06;16.30;60.40
22383;DHT22;11359;45.802;13.530;2023-03-31T07:35:32;16.30;60.40
22383;DHT22;11359;45.802;13.530;2023-03-31T07:37:58;16.30;60.40
22383;DHT22;11359;45.802;13.530;2023-03-31T07:40:27;16.30;60.50
22383;DHT22;11359;45.802;13.530;2023-03-31T07:42:54;16.30;60.60
22383;DHT22;11359;45.802;13.530;2023-03-31T07:45:22;16.30;60.70
22383;DHT22;11359;45.802;13.530;2023-03-31T07:47:49;16.30;60.70
22383;DHT22;11359;45.802;13.530;2023-03-31T07:50:15;16.30;60.70
22383;DHT22;11359;45.802;13.530;2023-03-31T07:52:41;16.30;60.70
22383;DHT22;11359;45.802;13.530;2023-03-31T07:55:08;16.40;60.80
22383;DHT22;11359;45.802;13.530;2023-03-31T07:57:35;16.40;60.80
22383;DHT22;11359;45.802;13.530;2023-03-31T08:00:03;16.40;60.80
22383;DHT22;11359;45.802;13.530;2023-03-31T08:02:33;16.40;60.80
22383;DHT22;11359;45.802;13.530;2023-03-31T08:04:59;16.40;60.80
22383;DHT22;11359;45.802;13.530;2023-03-31T08:07:25;16.40;60.80
22383;DHT22;11359;45.802;13.530;2023-03-31T08:09:55;16.40;60.80
22383;DHT22;11359;45.802;13.530;2023-03-31T08:12:22;16.40;60.90
22383;DHT22;11359;45.802;13.530;2023-03-31T08:14:49;16.30;60.90
22383;DHT22;11359;45.802;13.530;2023-03-31T08:17:15;16.30;61.00
22383;DHT22;11359;45.802;13.530;2023-03-31T08:19:42;16.30;61.00
22383;DHT22;11359;45.802;13.530;2023-03-31T08:22:07;16.30;61.10
22383;DHT22;11359;45.802;13.530;2023-03-31T08:24:33;16.30;61.20
22383;DHT22;11359;45.802;13.530;2023-03-31T08:26:59;16.30;61.20
22383;DHT22;11359;45.802;13.530;2023-03-31T08:29:24;16.30;61.30
22383;DHT22;11359;45.802;13.530;2023-03-31T08:31:50;16.30;61.30
22383;DHT22;11359;45.802;13.530;2023-03-31T08:34:16;16.30;61.50
22383;DHT22;11359;45.802;13.530;2023-03-31T08:36:42;16.40;61.50
22383;DHT22;11359;45.802;13.530;2023-03-31T08:39:07;16.40;61.50
22383;DHT22;11359;45.802;13.530;2023-03-31T08:44:28;16.40;61.50
22383;DHT22;11359;45.802;13.530;2023-03-31T08:46:57;16.40;61.50
22383;DHT22;11359;45.802;13.530;2023-03-31T08:49:25;16.40;61.50
22383;DHT22;11359;45.802;13.530;2023-03-31T08:52:01;16.40;61.60
22383;DHT22;11359;45.802;13.530;2023-03-31T08:54:31;16.40;61.60
22383;DHT22;11359;45.802;13.530;2023-03-31T08:56:57;16.40;61.70
22383;DHT22;11359;45.802;13.530;2023-03-31T08:59:32;16.40;61.70
22383;DHT22;11359;45.802;13.530;2023-03-31T09:07:43;16.40;61.60
22383;DHT22;11359;45.802;13.530;2023-03-31T09:15:49;16.50;61.80
22383;DHT22;11359;45.802;13.530;2023-03-31T09:21:01;16.40;61.80
22383;DHT22;11359;45.802;13.530;2023-03-31T09:23:37;16.40;61.80
22383;DHT22;11359;45.802;13.530;2023-03-31T09:26:05;16.40;61.80
22383;DHT22;11359;45.802;13.530;2023-03-31T09:28:38;16.40;61.90
22383;DHT22;11359;45.802;13.530;2023-03-31T09:31:12;16.40;62.00
22383;DHT22;11359;45.802;13.530;2023-03-31T09:33:45;16.50;62.00
22383;DHT22;11359;45.802;13.530;2023-03-31T09:36:17;16.50;62.10
22383;DHT22;11359;45.802;13.530;2023-03-31T09:38:45;16.50;62.10
22383;DHT22;11359;45.802;13.530;2023-03-31T09:41:12;16.60;62.10
22383;DHT22;11359;45.802;13.530;2023-03-31T09:43:40;16.60;62.10
22383;DHT22;11359;45.802;13.530;2023-03-31T09:46:28;16.60;62.10
22383;DHT22;11359;45.802;13.530;2023-03-31T09:49:01;16.60;62.10
22383;DHT22;11359;45.802;13.530;2023-03-31T09:51:33;16.60;62.00
22383;DHT22;11359;45.802;13.530;2023-03-31T09:57:32;16.70;62.90
22383;DHT22;11359;45.802;13.530;2023-03-31T10:05:38;16.80;62.20
22383;DHT22;11359;45.802;13.530;2023-03-31T10:10:56;16.90;62.20
22383;DHT22;11359;45.802;13.530;2023-03-31T10:13:26;16.90;62.10
22383;DHT22;11359;45.802;13.530;2023-03-31T10:16:05;17.00;62.10
22383;DHT22;11359;45.802;13.530;2023-03-31T10:18:36;17.00;62.10
22383;DHT22;11359;45.802;13.530;2023-03-31T10:21:04;17.00;61.90
22383;DHT22;11359;45.802;13.530;2023-03-31T10:23:33;17.00;61.80
22383;DHT22;11359;45.802;13.530;2023-03-31T10:26:01;17.00;61.70
22383;DHT22;11359;45.802;13.530;2023-03-31T10:28:32;17.00;61.70
22383;DHT22;11359;45.802;13.530;2023-03-31T10:30:59;17.00;61.70
22383;DHT22;11359;45.802;13.530;2023-03-31T10:33:28;17.00;61.60
22383;DHT22;11359;45.802;13.530;2023-03-31T10:35:56;17.00;61.60
22383;DHT22;11359;45.802;13.530;2023-03-31T10:38:33;16.90;61.60
22383;DHT22;11359;45.802;13.530;2023-03-31T10:41:00;17.00;61.80
22383;DHT22;11359;45.802;13.530;2023-03-31T10:43:36;16.90;61.80
22383;DHT22;11359;45.802;13.530;2023-03-31T10:46:03;17.00;62.00
22383;DHT22;11359;45.802;13.530;2023-03-31T10:48:32;17.10;62.20
22383;DHT22;11359;45.802;13.530;2023-03-31T10:51:17;17.10;62.20
22383;DHT22;11359;45.802;13.530;2023-03-31T10:53:48;17.20;62.10
22383;DHT22;11359;45.802;13.530;2023-03-31T11:02:01;17.30;61.70
22383;DHT22;11359;45.802;13.530;2023-03-31T11:07:32;17.40;61.60
22383;DHT22;11359;45.802;13.530;2023-03-31T11:18:35;17.40;61.30
22383;DHT22;11359;45.802;13.530;2023-03-31T11:23:55;17.40;61.40
22383;DHT22;11359;45.802;13.530;2023-03-31T11:29:36;17.30;61.10
22383;DHT22;11359;45.802;13.530;2023-03-31T11:32:24;17.30;61.10
22383;DHT22;11359;45.802;13.530;2023-03-31T11:43:06;17.20;60.80
22383;DHT22;11359;45.802;13.530;2023-03-31T11:45:36;17.20;60.80
22383;DHT22;11359;45.802;13.530;2023-03-31T11:48:08;17.20;60.90
22383;DHT22;11359;45.802;13.530;2023-03-31T11:50:38;17.10;60.90
22383;DHT22;11359;45.802;13.530;2023-03-31T11:53:18;17.10;60.90
22383;DHT22;11359;45.802;13.530;2023-03-31T11:55:47;17.10;61.00
22383;DHT22;11359;45.802;13.530;2023-03-31T11:58:19;17.10;61.00
22383;DHT22;11359;45.802;13.530;2023-03-31T12:00:56;17.10;60.90
22383;DHT22;11359;45.802;13.530;2023-03-31T12:06:05;17.00;60.90
22383;DHT22;11359;45.802;13.530;2023-03-31T12:12:00;17.00;60.90
22383;DHT22;11359;45.802;13.530;2023-03-31T12:15:02;17.00;60.90
22383;DHT22;11359;45.802;13.530;2023-03-31T12:17:30;17.00;61.00
22383;DHT22;11359;45.802;13.530;2023-03-31T12:20:03;16.90;61.00
22383;DHT22;11359;45.802;13.530;2023-03-31T12:22:43;16.90;61.00
22383;DHT22;11359;45.802;13.530;2023-03-31T12:25:19;16.90;61.00
22383;DHT22;11359;45.802;13.530;2023-03-31T12:27:50;16.90;61.10
22383;DHT22;11359;45.802;13.530;2023-03-31T12:30:32;16.90;61.10
22383;DHT22;11359;45.802;13.530;2023-03-31T12:33:31;16.90;61.10
22383;DHT22;11359;45.802;13.530;2023-03-31T12:36:23;16.90;61.10
22383;DHT22;11359;45.802;13.530;2023-03-31T12:42:02;16.90;61.20
22383;DHT22;11359;45.802;13.530;2023-03-31T13:03:48;17.10;61.30
22383;DHT22;11359;45.802;13.530;2023-03-31T13:14:20;17.10;61.40
22383;DHT22;11359;45.802;13.530;2023-03-31T13:16:48;17.20;61.60
22383;DHT22;11359;45.802;13.530;2023-03-31T13:19:43;17.20;61.50
22383;DHT22;11359;45.802;13.530;2023-03-31T13:22:36;17.30;61.60
22383;DHT22;11359;45.802;13.530;2023-03-31T13:30:56;17.30;61.50
22383;DHT22;11359;45.802;13.530;2023-03-31T13:39:09;17.30;61.30
22383;DHT22;11359;45.802;13.530;2023-03-31T13:42:05;17.30;61.40
22383;DHT22;11359;45.802;13.530;2023-03-31T14:08:52;17.10;61.60
22383;DHT22;11359;45.802;13.530;2023-03-31T14:14:15;17.20;61.90
22383;DHT22;11359;45.802;13.530;2023-03-31T14:33:37;17.10;62.20
22383;DHT22;11359;45.802;13.530;2023-03-31T14:38:32;17.20;62.30
22383;DHT22;11359;45.802;13.530;2023-03-31T14:40:59;17.20;62.30
22383;DHT22;11359;45.802;13.530;2023-03-31T14:43:31;17.20;62.40
22383;DHT22;11359;45.802;13.530;2023-03-31T14:46:02;17.10;62.30
22383;DHT22;11359;45.802;13.530;2023-03-31T14:48:33;17.20;62.40
22383;DHT22;11359;45.802;13.530;2023-03-31T14:51:01;17.20;62.40
22383;DHT22;11359;45.802;13.530;2023-03-31T14:53:28;17.20;62.40
22383;DHT22;11359;45.802;13.530;2023-03-31T14:56:01;17.20;62.30
22383;DHT22;11359;45.802;13.530;2023-03-31T14:58:32;17.20;63.20
22383;DHT22;11359;45.802;13.530;2023-03-31T15:01:01;17.30;62.40
22383;DHT22;11359;45.802;13.530;2023-03-31T15:03:29;17.30;62.30
22383;DHT22;11359;45.802;13.530;2023-03-31T15:05:59;17.30;62.30
22383;DHT22;11359;45.802;13.530;2023-03-31T15:08:27;17.20;62.10
22383;DHT22;11359;45.802;13.530;2023-03-31T15:10:58;17.20;62.10
22383;DHT22;11359;45.802;13.530;2023-03-31T15:13:37;17.20;62.10
22383;DHT22;11359;45.802;13.530;2023-03-31T15:18:57;17.20;62.20
22383;DHT22;11359;45.802;13.530;2023-03-31T15:21:29;17.20;62.10
22383;DHT22;11359;45.802;13.530;2023-03-31T15:23:56;17.10;62.10
22383;DHT22;11359;45.802;13.530;2023-03-31T15:26:32;17.10;62.10
22383;DHT22;11359;45.802;13.530;2023-03-31T15:29:28;17.10;62.10
22383;DHT22;11359;45.802;13.530;2023-03-31T15:31:57;17.00;62.10
22383;DHT22;11359;45.802;13.530;2023-03-31T15:34:30;17.00;62.20
22383;DHT22;11359;45.802;13.530;2023-03-31T15:36:58;17.00;62.30
22383;DHT22;11359;45.802;13.530;2023-03-31T15:39:29;17.00;62.30
22383;DHT22;11359;45.802;13.530;2023-03-31T15:41:56;17.00;62.40
22383;DHT22;11359;45.802;13.530;2023-03-31T15:44:34;16.90;62.30
22383;DHT22;11359;45.802;13.530;2023-03-31T15:47:06;16.90;62.30
22383;DHT22;11359;45.802;13.530;2023-03-31T15:49:33;16.90;62.30
22383;DHT22;11359;45.802;13.530;2023-03-31T15:51:59;16.90;62.30
22383;DHT22;11359;45.802;13.530;2023-03-31T15:54:41;16.90;62.30
22383;DHT22;11359;45.802;13.530;2023-03-31T15:57:08;16.90;62.30
22383;DHT22;11359;45.802;13.530;2023-03-31T15:59:50;16.90;62.40
22383;DHT22;11359;45.802;13.530;2023-03-31T16:02:23;16.80;62.30
22383;DHT22;11359;45.802;13.530;2023-03-31T16:04:53;16.90;62.30
22383;DHT22;11359;45.802;13.530;2023-03-31T16:07:23;16.90;62.30
22383;DHT22;11359;45.802;13.530;2023-03-31T16:09:59;16.90;62.30
22383;DHT22;11359;45.802;13.530;2023-03-31T16:12:39;16.90;62.30
22383;DHT22;11359;45.802;13.530;2023-03-31T16:15:15;16.90;62.30
22383;DHT22;11359;45.802;13.530;2023-03-31T16:20:30;16.90;62.30
22383;DHT22;11359;45.802;13.530;2023-03-31T16:22:57;16.90;62.30
22383;DHT22;11359;45.802;13.530;2023-03-31T16:25:25;16.90;62.30
22383;DHT22;11359;45.802;13.530;2023-03-31T16:28:01;16.90;62.20
22383;DHT22;11359;45.802;13.530;2023-03-31T16:30:38;16.90;62.10
22383;DHT22;11359;45.802;13.530;2023-03-31T16:33:16;16.90;61.90
22383;DHT22;11359;45.802;13.530;2023-03-31T16:35:45;16.90;61.90
22383;DHT22;11359;45.802;13.530;2023-03-31T16:38:14;16.90;61.80
22383;DHT22;11359;45.802;13.530;2023-03-31T16:40:50;16.90;61.80
22383;DHT22;11359;45.802;13.530;2023-03-31T16:43:22;16.90;61.70
22383;DHT22;11359;45.802;13.530;2023-03-31T16:45:52;16.90;61.70
22383;DHT22;11359;45.802;13.530;2023-03-31T16:48:19;16.90;61.70
22383;DHT22;11359;45.802;13.530;2023-03-31T16:50:47;16.90;61.70
22383;DHT22;11359;45.802;13.530;2023-03-31T16:53:17;16.90;61.70
22383;DHT22;11359;45.802;13.530;2023-03-31T16:55:43;16.90;61.70
22383;DHT22;11359;45.802;13.530;2023-03-31T16:58:09;16.90;62.50
22383;DHT22;11359;45.802;13.530;2023-03-31T17:00:35;16.90;61.60
22383;DHT22;11359;45.802;13.530;2023-03-31T17:03:05;17.00;61.70
22383;DHT22;11359;45.802;13.530;2023-03-31T17:05:32;16.90;61.50
22383;DHT22;11359;45.802;13.530;2023-03-31T17:08:02;16.90;61.50
22383;DHT22;11359;45.802;13.530;2023-03-31T17:10:28;16.90;61.40
22383;DHT22;11359;45.802;13.530;2023-03-31T17:12:53;16.90;61.50
22383;DHT22;11359;45.802;13.530;2023-03-31T17:15:20;16.90;61.50
22383;DHT22;11359;45.802;13.530;2023-03-31T17:17:47;16.90;61.60
22383;DHT22;11359;45.802;13.530;2023-03-31T17:20:13;16.90;61.70
22383;DHT22;11359;45.802;13.530;2023-03-31T17:22:39;16.90;61.70
22383;DHT22;11359;45.802;13.530;2023-03-31T17:25:06;16.90;61.70
22383;DHT22;11359;45.802;13.530;2023-03-31T17:27:32;16.90;61.70
22383;DHT22;11359;45.802;13.530;2023-03-31T17:29:59;16.90;61.80
22383;DHT22;11359;45.802;13.530;2023-03-31T17:32:25;16.80;61.70
22383;DHT22;11359;45.802;13.530;2023-03-31T17:34:51;16.80;61.80
22383;DHT22;11359;45.802;13.530;2023-03-31T17:37:17;16.80;61.80
22383;DHT22;11359;45.802;13.530;2023-03-31T17:39:43;16.80;61.90
22383;DHT22;11359;45.802;13.530;2023-03-31T17:42:11;16.80;61.90
22383;DHT22;11359;45.802;13.530;2023-03-31T17:44:38;16.70;61.90
22383;DHT22;11359;45.802;13.530;2023-03-31T17:47:05;16.70;61.90
22383;DHT22;11359;45.802;13.530;2023-03-31T17:49:32;16.70;62.00
22383;DHT22;11359;45.802;13.530;2023-03-31T17:51:59;16.70;62.10
22383;DHT22;11359;45.802;13.530;2023-03-31T17:54:25;16.70;62.10
22383;DHT22;11359;45.802;13.530;2023-03-31T17:56:51;16.70;62.10
22383;DHT22;11359;45.802;13.530;2023-03-31T17:59:18;16.70;62.10
22383;DHT22;11359;45.802;13.530;2023-03-31T18:01:44;16.70;62.10
22383;DHT22;11359;45.802;13.530;2023-03-31T18:04:12;16.60;62.10
22383;DHT22;11359;45.802;13.530;2023-03-31T18:06:38;16.60;62.20
22383;DHT22;11359;45.802;13.530;2023-03-31T18:09:04;16.60;62.30
22383;DHT22;11359;45.802;13.530;2023-03-31T18:11:30;16.60;62.30
22383;DHT22;11359;45.802;13.530;2023-03-31T18:13:57;16.60;62.50
22383;DHT22;11359;45.802;13.530;2023-03-31T18:16:26;16.60;62.50
22383;DHT22;11359;45.802;13.530;2023-03-31T18:18:53;16.60;62.50
22383;DHT22;11359;45.802;13.530;2023-03-31T18:21:19;16.60;62.50
22383;DHT22;11359;45.802;13.530;2023-03-31T18:23:46;16.60;62.50
22383;DHT22;11359;45.802;13.530;2023-03-31T18:26:18;16.60;62.60
22383;DHT22;11359;45.802;13.530;2023-03-31T18:28:44;16.50;62.60
22383;DHT22;11359;45.802;13.530;2023-03-31T18:31:11;16.50;62.60
22383;DHT22;11359;45.802;13.530;2023-03-31T18:33:38;16.50;62.60
22383;DHT22;11359;45.802;13.530;2023-03-31T18:36:05;16.60;62.70
22383;DHT22;11359;45.802;13.530;2023-03-31T18:38:31;16.50;62.70
22383;DHT22;11359;45.802;13.530;2023-03-31T18:40:58;16.50;62.80
22383;DHT22;11359;45.802;13.530;2023-03-31T18:43:25;16.50;62.80
22383;DHT22;11359;45.802;13.530;2023-03-31T18:45:53;16.50;62.80
22383;DHT22;11359;45.802;13.530;2023-03-31T18:48:20;16.50;62.80
22383;DHT22;11359;45.802;13.530;2023-03-31T18:50:48;16.50;62.90
22383;DHT22;11359;45.802;13.530;2023-03-31T18:53:15;16.50;62.90
22383;DHT22;11359;45.802;13.530;2023-03-31T18:55:43;16.50;62.90